sensor_id;sensor_type;location;lat;lon;timestamp;P1;durP1;ratioP1;P2;durP2;ratioP2
27161;SDS011;54464;50.558;9.704;2023-08-06T00:01:50;3.30;;;3.00;;
27161;SDS011;54464;50.558;9.704;2023-08-06T00:04:16;4.03;;;3.50;;
27161;SDS011;54464;50.558;9.704;2023-08-06T00:06:41;4.60;;;3.70;;
27161;SDS011;54464;50.558;9.704;2023-08-06T00:09:07;3.90;;;3.57;;
27161;SDS011;54464;50.558;9.704;2023-08-06T00:11:33;5.23;;;3.90;;
27161;SDS011;54464;50.558;9.704;2023-08-06T00:13:58;3.73;;;3.43;;
27161;SDS011;54464;50.558;9.704;2023-08-06T00:16:24;3.87;;;3.57;;
27161;SDS011;54464;50.558;9.704;2023-08-06T00:18:50;4.10;;;3.80;;
27161;SDS011;54464;50.558;9.704;2023-08-06T00:21:17;3.43;;;3.13;;
27161;SDS011;54464;50.558;9.704;2023-08-06T00:23:43;3.50;;;3.20;;
27161;SDS011;54464;50.558;9.704;2023-08-06T00:26:08;3.93;;;3.43;;
27161;SDS011;54464;50.558;9.704;2023-08-06T00:28:34;3.30;;;3.00;;
27161;SDS011;54464;50.558;9.704;2023-08-06T00:30:59;3.37;;;3.07;;
27161;SDS011;54464;50.558;9.704;2023-08-06T00:33:25;4.63;;;3.20;;
27161;SDS011;54464;50.558;9.704;2023-08-06T00:35:51;3.90;;;3.23;;
27161;SDS011;54464;50.558;9.704;2023-08-06T00:38:16;3.67;;;3.37;;
27161;SDS011;54464;50.558;9.704;2023-08-06T00:40:42;4.30;;;3.90;;
27161;SDS011;54464;50.558;9.704;2023-08-06T00:43:08;4.53;;;3.67;;
27161;SDS011;54464;50.558;9.704;2023-08-06T00:45:34;4.50;;;4.10;;
27161;SDS011;54464;50.558;9.704;2023-08-06T00:48:01;4.63;;;4.20;;
27161;SDS011;54464;50.558;9.704;2023-08-06T00:50:28;5.30;;;4.83;;
27161;SDS011;54464;50.558;9.704;2023-08-06T00:52:54;4.90;;;4.50;;
27161;SDS011;54464;50.558;9.704;2023-08-06T00:55:20;5.83;;;5.30;;
27161;SDS011;54464;50.558;9.704;2023-08-06T00:57:46;5.97;;;5.20;;
27161;SDS011;54464;50.558;9.704;2023-08-06T01:00:12;6.20;;;5.60;;
27161;SDS011;54464;50.558;9.704;2023-08-06T01:02:38;5.27;;;4.77;;
27161;SDS011;54464;50.558;9.704;2023-08-06T01:05:03;5.20;;;4.80;;
27161;SDS011;54464;50.558;9.704;2023-08-06T01:13:16;4.57;;;4.10;;
27161;SDS011;54464;50.558;9.704;2023-08-06T01:16:22;5.53;;;4.30;;
27161;SDS011;54464;50.558;9.704;2023-08-06T01:18:50;5.00;;;4.37;;
27161;SDS011;54464;50.558;9.704;2023-08-06T01:21:16;4.10;;;3.80;;
27161;SDS011;54464;50.558;9.704;2023-08-06T01:23:42;4.00;;;3.70;;
27161;SDS011;54464;50.558;9.704;2023-08-06T01:26:14;3.77;;;3.47;;
27161;SDS011;54464;50.558;9.704;2023-08-06T01:28:56;4.33;;;3.67;;
27161;SDS011;54464;50.558;9.704;2023-08-06T01:31:31;4.13;;;3.47;;
27161;SDS011;54464;50.558;9.704;2023-08-06T01:34:01;3.37;;;3.07;;
27161;SDS011;54464;50.558;9.704;2023-08-06T01:36:28;4.00;;;3.60;;
27161;SDS011;54464;50.558;9.704;2023-08-06T01:38:53;4.27;;;3.17;;
27161;SDS011;54464;50.558;9.704;2023-08-06T01:41:19;3.67;;;2.83;;
27161;SDS011;54464;50.558;9.704;2023-08-06T01:43:45;3.03;;;2.73;;
27161;SDS011;54464;50.558;9.704;2023-08-06T01:46:11;3.20;;;2.90;;
27161;SDS011;54464;50.558;9.704;2023-08-06T01:48:36;3.07;;;2.77;;
27161;SDS011;54464;50.558;9.704;2023-08-06T01:51:05;4.00;;;3.23;;
27161;SDS011;54464;50.558;9.704;2023-08-06T01:53:31;2.87;;;2.67;;
27161;SDS011;54464;50.558;9.704;2023-08-06T01:55:57;2.90;;;2.57;;
27161;SDS011;54464;50.558;9.704;2023-08-06T01:58:23;2.87;;;2.67;;
27161;SDS011;54464;50.558;9.704;2023-08-06T02:00:48;2.57;;;2.37;;
27161;SDS011;54464;50.558;9.704;2023-08-06T02:03:14;2.57;;;2.37;;
27161;SDS011;54464;50.558;9.704;2023-08-06T02:05:40;2.97;;;2.53;;
27161;SDS011;54464;50.558;9.704;2023-08-06T02:08:06;2.90;;;2.37;;
27161;SDS011;54464;50.558;9.704;2023-08-06T02:10:32;3.27;;;2.50;;
27161;SDS011;54464;50.558;9.704;2023-08-06T02:12:58;2.90;;;2.67;;
27161;SDS011;54464;50.558;9.704;2023-08-06T02:15:23;2.83;;;2.63;;
27161;SDS011;54464;50.558;9.704;2023-08-06T02:17:49;4.60;;;2.73;;
27161;SDS011;54464;50.558;9.704;2023-08-06T02:20:14;3.43;;;2.77;;
27161;SDS011;54464;50.558;9.704;2023-08-06T02:22:40;3.23;;;2.80;;
27161;SDS011;54464;50.558;9.704;2023-08-06T02:25:06;3.07;;;2.77;;
27161;SDS011;54464;50.558;9.704;2023-08-06T02:27:31;4.83;;;2.90;;
27161;SDS011;54464;50.558;9.704;2023-08-06T02:29:57;3.27;;;2.47;;
27161;SDS011;54464;50.558;9.704;2023-08-06T02:32:22;5.80;;;2.87;;
27161;SDS011;54464;50.558;9.704;2023-08-06T02:34:48;3.00;;;2.70;;
27161;SDS011;54464;50.558;9.704;2023-08-06T02:37:14;2.90;;;2.70;;
27161;SDS011;54464;50.558;9.704;2023-08-06T02:39:39;3.80;;;2.77;;
27161;SDS011;54464;50.558;9.704;2023-08-06T02:42:06;3.20;;;2.90;;
27161;SDS011;54464;50.558;9.704;2023-08-06T02:44:32;3.10;;;2.80;;
27161;SDS011;54464;50.558;9.704;2023-08-06T02:46:58;3.07;;;2.77;;
27161;SDS011;54464;50.558;9.704;2023-08-06T02:49:25;2.80;;;2.60;;
27161;SDS011;54464;50.558;9.704;2023-08-06T02:51:50;3.73;;;2.53;;
27161;SDS011;54464;50.558;9.704;2023-08-06T02:54:16;2.70;;;2.50;;
27161;SDS011;54464;50.558;9.704;2023-08-06T02:56:43;2.50;;;2.30;;
27161;SDS011;54464;50.558;9.704;2023-08-06T02:59:10;3.13;;;2.87;;
27161;SDS011;54464;50.558;9.704;2023-08-06T03:01:35;3.33;;;3.00;;
27161;SDS011;54464;50.558;9.704;2023-08-06T03:04:01;2.87;;;2.60;;
27161;SDS011;54464;50.558;9.704;2023-08-06T03:06:27;2.77;;;2.57;;
27161;SDS011;54464;50.558;9.704;2023-08-06T03:08:53;3.63;;;2.97;;
27161;SDS011;54464;50.558;9.704;2023-08-06T03:11:18;3.17;;;2.87;;
27161;SDS011;54464;50.558;9.704;2023-08-06T03:13:44;4.47;;;2.73;;
27161;SDS011;54464;50.558;9.704;2023-08-06T03:16:09;4.00;;;2.80;;
27161;SDS011;54464;50.558;9.704;2023-08-06T03:18:35;4.20;;;2.70;;
27161;SDS011;54464;50.558;9.704;2023-08-06T03:21:01;3.80;;;2.90;;
27161;SDS011;54464;50.558;9.704;2023-08-06T03:23:27;2.90;;;2.60;;
27161;SDS011;54464;50.558;9.704;2023-08-06T03:25:52;4.87;;;3.00;;
27161;SDS011;54464;50.558;9.704;2023-08-06T03:28:18;3.33;;;2.77;;
27161;SDS011;54464;50.558;9.704;2023-08-06T03:30:44;3.90;;;2.70;;
27161;SDS011;54464;50.558;9.704;2023-08-06T03:33:09;3.23;;;2.93;;
27161;SDS011;54464;50.558;9.704;2023-08-06T03:35:35;3.47;;;2.60;;
27161;SDS011;54464;50.558;9.704;2023-08-06T03:38:00;3.23;;;2.80;;
27161;SDS011;54464;50.558;9.704;2023-08-06T03:40:26;3.17;;;2.87;;
27161;SDS011;54464;50.558;9.704;2023-08-06T03:42:51;3.20;;;2.90;;
27161;SDS011;54464;50.558;9.704;2023-08-06T03:45:17;4.17;;;2.70;;
27161;SDS011;54464;50.558;9.704;2023-08-06T03:47:42;3.23;;;2.90;;
27161;SDS011;54464;50.558;9.704;2023-08-06T03:50:08;3.57;;;2.80;;
27161;SDS011;54464;50.558;9.704;2023-08-06T03:52:34;3.30;;;3.00;;
27161;SDS011;54464;50.558;9.704;2023-08-06T03:54:59;3.57;;;2.90;;
27161;SDS011;54464;50.558;9.704;2023-08-06T03:57:25;3.07;;;2.60;;
27161;SDS011;54464;50.558;9.704;2023-08-06T03:59:50;3.60;;;2.80;;
27161;SDS011;54464;50.558;9.704;2023-08-06T04:02:16;3.13;;;2.70;;
27161;SDS011;54464;50.558;9.704;2023-08-06T04:04:42;2.93;;;2.73;;
27161;SDS011;54464;50.558;9.704;2023-08-06T04:07:07;3.33;;;2.50;;
27161;SDS011;54464;50.558;9.704;2023-08-06T04:09:33;3.87;;;2.83;;
27161;SDS011;54464;50.558;9.704;2023-08-06T04:11:58;4.43;;;2.97;;
27161;SDS011;54464;50.558;9.704;2023-08-06T04:14:26;3.17;;;2.73;;
27161;SDS011;54464;50.558;9.704;2023-08-06T04:16:52;2.93;;;2.60;;
27161;SDS011;54464;50.558;9.704;2023-08-06T04:19:18;2.80;;;2.60;;
27161;SDS011;54464;50.558;9.704;2023-08-06T04:21:43;3.03;;;2.73;;
27161;SDS011;54464;50.558;9.704;2023-08-06T04:24:09;3.50;;;2.70;;
27161;SDS011;54464;50.558;9.704;2023-08-06T04:26:35;3.13;;;2.83;;
27161;SDS011;54464;50.558;9.704;2023-08-06T04:29:00;3.37;;;2.83;;
27161;SDS011;54464;50.558;9.704;2023-08-06T04:31:26;3.50;;;3.13;;
27161;SDS011;54464;50.558;9.704;2023-08-06T04:33:51;2.87;;;2.67;;
27161;SDS011;54464;50.558;9.704;2023-08-06T04:36:17;3.97;;;2.90;;
27161;SDS011;54464;50.558;9.704;2023-08-06T04:38:42;2.90;;;2.70;;
27161;SDS011;54464;50.558;9.704;2023-08-06T04:41:10;4.00;;;2.80;;
27161;SDS011;54464;50.558;9.704;2023-08-06T04:43:36;3.10;;;2.80;;
27161;SDS011;54464;50.558;9.704;2023-08-06T04:46:02;3.30;;;2.77;;
27161;SDS011;54464;50.558;9.704;2023-08-06T04:48:27;3.67;;;3.00;;
27161;SDS011;54464;50.558;9.704;2023-08-06T04:50:53;3.77;;;2.70;;
27161;SDS011;54464;50.558;9.704;2023-08-06T04:53:19;3.37;;;3.07;;
27161;SDS011;54464;50.558;9.704;2023-08-06T04:55:45;3.37;;;2.87;;
27161;SDS011;54464;50.558;9.704;2023-08-06T04:58:10;5.00;;;3.00;;
27161;SDS011;54464;50.558;9.704;2023-08-06T05:00:37;4.33;;;3.10;;
27161;SDS011;54464;50.558;9.704;2023-08-06T05:03:03;2.77;;;2.57;;
27161;SDS011;54464;50.558;9.704;2023-08-06T05:05:28;3.97;;;2.90;;
27161;SDS011;54464;50.558;9.704;2023-08-06T05:07:54;3.67;;;3.00;;
27161;SDS011;54464;50.558;9.704;2023-08-06T05:10:23;3.43;;;3.00;;
27161;SDS011;54464;50.558;9.704;2023-08-06T05:12:50;4.10;;;3.17;;
27161;SDS011;54464;50.558;9.704;2023-08-06T05:15:15;4.37;;;2.80;;
27161;SDS011;54464;50.558;9.704;2023-08-06T05:17:41;4.33;;;3.33;;
27161;SDS011;54464;50.558;9.704;2023-08-06T05:20:06;3.00;;;2.70;;
27161;SDS011;54464;50.558;9.704;2023-08-06T05:22:32;3.57;;;3.00;;
27161;SDS011;54464;50.558;9.704;2023-08-06T05:24:58;3.10;;;2.80;;
27161;SDS011;54464;50.558;9.704;2023-08-06T05:27:23;4.10;;;2.93;;
27161;SDS011;54464;50.558;9.704;2023-08-06T05:29:49;3.53;;;2.93;;
27161;SDS011;54464;50.558;9.704;2023-08-06T05:32:14;4.27;;;2.97;;
27161;SDS011;54464;50.558;9.704;2023-08-06T05:34:40;3.50;;;3.20;;
27161;SDS011;54464;50.558;9.704;2023-08-06T05:37:06;3.50;;;2.60;;
27161;SDS011;54464;50.558;9.704;2023-08-06T05:39:32;3.87;;;2.70;;
27161;SDS011;54464;50.558;9.704;2023-08-06T05:41:57;3.50;;;2.70;;
27161;SDS011;54464;50.558;9.704;2023-08-06T05:44:23;2.67;;;2.40;;
27161;SDS011;54464;50.558;9.704;2023-08-06T05:46:49;3.10;;;2.70;;
27161;SDS011;54464;50.558;9.704;2023-08-06T05:49:15;2.83;;;2.50;;
27161;SDS011;54464;50.558;9.704;2023-08-06T05:51:41;3.17;;;2.57;;
27161;SDS011;54464;50.558;9.704;2023-08-06T05:54:07;3.67;;;2.73;;
27161;SDS011;54464;50.558;9.704;2023-08-06T05:56:32;2.90;;;2.60;;
27161;SDS011;54464;50.558;9.704;2023-08-06T05:58:58;3.17;;;2.63;;
27161;SDS011;54464;50.558;9.704;2023-08-06T06:01:23;3.37;;;2.60;;
27161;SDS011;54464;50.558;9.704;2023-08-06T06:03:49;3.43;;;2.60;;
27161;SDS011;54464;50.558;9.704;2023-08-06T06:06:14;3.67;;;2.40;;
27161;SDS011;54464;50.558;9.704;2023-08-06T06:08:41;3.03;;;2.27;;
27161;SDS011;54464;50.558;9.704;2023-08-06T06:11:07;3.00;;;2.30;;
27161;SDS011;54464;50.558;9.704;2023-08-06T06:13:32;3.17;;;2.40;;
27161;SDS011;54464;50.558;9.704;2023-08-06T06:15:58;2.87;;;2.40;;
27161;SDS011;54464;50.558;9.704;2023-08-06T06:18:23;2.50;;;2.30;;
27161;SDS011;54464;50.558;9.704;2023-08-06T06:20:49;3.07;;;2.20;;
27161;SDS011;54464;50.558;9.704;2023-08-06T06:23:14;2.30;;;2.10;;
27161;SDS011;54464;50.558;9.704;2023-08-06T06:25:58;4.10;;;2.20;;
27161;SDS011;54464;50.558;9.704;2023-08-06T06:28:24;2.90;;;2.20;;
27161;SDS011;54464;50.558;9.704;2023-08-06T06:30:51;3.67;;;2.30;;
27161;SDS011;54464;50.558;9.704;2023-08-06T06:33:16;2.93;;;2.40;;
27161;SDS011;54464;50.558;9.704;2023-08-06T06:35:42;4.00;;;2.50;;
27161;SDS011;54464;50.558;9.704;2023-08-06T06:38:08;2.77;;;2.40;;
27161;SDS011;54464;50.558;9.704;2023-08-06T06:40:33;2.97;;;2.30;;
27161;SDS011;54464;50.558;9.704;2023-08-06T06:42:59;3.03;;;2.43;;
27161;SDS011;54464;50.558;9.704;2023-08-06T06:45:24;5.13;;;2.57;;
27161;SDS011;54464;50.558;9.704;2023-08-06T06:47:50;2.53;;;2.10;;
27161;SDS011;54464;50.558;9.704;2023-08-06T06:50:16;4.50;;;2.27;;
27161;SDS011;54464;50.558;9.704;2023-08-06T06:52:41;2.37;;;2.00;;
27161;SDS011;54464;50.558;9.704;2023-08-06T06:55:07;2.10;;;1.87;;
27161;SDS011;54464;50.558;9.704;2023-08-06T06:57:33;3.60;;;1.90;;
27161;SDS011;54464;50.558;9.704;2023-08-06T06:59:58;2.57;;;2.00;;
27161;SDS011;54464;50.558;9.704;2023-08-06T07:02:24;2.53;;;2.00;;
27161;SDS011;54464;50.558;9.704;2023-08-06T07:04:49;3.80;;;1.93;;
27161;SDS011;54464;50.558;9.704;2023-08-06T07:07:15;2.63;;;1.80;;
27161;SDS011;54464;50.558;9.704;2023-08-06T07:09:41;2.47;;;1.80;;
27161;SDS011;54464;50.558;9.704;2023-08-06T07:12:06;2.70;;;1.67;;
27161;SDS011;54464;50.558;9.704;2023-08-06T07:14:32;2.20;;;1.77;;
27161;SDS011;54464;50.558;9.704;2023-08-06T07:16:58;2.70;;;1.57;;
27161;SDS011;54464;50.558;9.704;2023-08-06T07:19:23;2.50;;;1.80;;
27161;SDS011;54464;50.558;9.704;2023-08-06T07:21:49;3.60;;;1.63;;
27161;SDS011;54464;50.558;9.704;2023-08-06T07:24:14;2.43;;;1.70;;
27161;SDS011;54464;50.558;9.704;2023-08-06T07:26:40;2.63;;;1.70;;
27161;SDS011;54464;50.558;9.704;2023-08-06T07:29:05;3.00;;;1.90;;
27161;SDS011;54464;50.558;9.704;2023-08-06T07:31:31;2.30;;;2.10;;
27161;SDS011;54464;50.558;9.704;2023-08-06T07:33:57;2.70;;;2.20;;
27161;SDS011;54464;50.558;9.704;2023-08-06T07:36:22;4.53;;;2.80;;
27161;SDS011;54464;50.558;9.704;2023-08-06T07:38:48;4.53;;;3.50;;
27161;SDS011;54464;50.558;9.704;2023-08-06T07:41:16;4.67;;;3.07;;
27161;SDS011;54464;50.558;9.704;2023-08-06T07:43:42;2.23;;;2.00;;
27161;SDS011;54464;50.558;9.704;2023-08-06T07:46:07;2.00;;;1.80;;
27161;SDS011;54464;50.558;9.704;2023-08-06T07:48:33;1.80;;;1.70;;
27161;SDS011;54464;50.558;9.704;2023-08-06T07:50:59;1.70;;;1.43;;
27161;SDS011;54464;50.558;9.704;2023-08-06T07:53:25;1.73;;;1.63;;
27161;SDS011;54464;50.558;9.704;2023-08-06T07:55:57;3.43;;;1.77;;
27161;SDS011;54464;50.558;9.704;2023-08-06T07:58:24;2.43;;;1.80;;
27161;SDS011;54464;50.558;9.704;2023-08-06T08:00:50;2.07;;;1.57;;
27161;SDS011;54464;50.558;9.704;2023-08-06T08:03:16;1.80;;;1.70;;
27161;SDS011;54464;50.558;9.704;2023-08-06T08:05:42;3.03;;;1.97;;
27161;SDS011;54464;50.558;9.704;2023-08-06T08:08:08;2.07;;;1.87;;
27161;SDS011;54464;50.558;9.704;2023-08-06T08:10:34;2.30;;;1.53;;
27161;SDS011;54464;50.558;9.704;2023-08-06T08:13:02;2.33;;;1.20;;
27161;SDS011;54464;50.558;9.704;2023-08-06T08:15:29;1.20;;;1.10;;
27161;SDS011;54464;50.558;9.704;2023-08-06T08:17:55;1.70;;;1.20;;
27161;SDS011;54464;50.558;9.704;2023-08-06T08:20:21;1.00;;;0.90;;
27161;SDS011;54464;50.558;9.704;2023-08-06T08:22:47;2.47;;;1.00;;
27161;SDS011;54464;50.558;9.704;2023-08-06T08:25:13;1.63;;;0.90;;
27161;SDS011;54464;50.558;9.704;2023-08-06T08:27:38;0.83;;;0.73;;
27161;SDS011;54464;50.558;9.704;2023-08-06T08:30:04;1.60;;;0.90;;
27161;SDS011;54464;50.558;9.704;2023-08-06T08:32:30;1.07;;;0.70;;
27161;SDS011;54464;50.558;9.704;2023-08-06T08:34:56;0.77;;;0.70;;
27161;SDS011;54464;50.558;9.704;2023-08-06T08:37:22;1.73;;;0.80;;
27161;SDS011;54464;50.558;9.704;2023-08-06T08:39:48;0.80;;;0.80;;
27161;SDS011;54464;50.558;9.704;2023-08-06T08:42:14;0.70;;;0.70;;
27161;SDS011;54464;50.558;9.704;2023-08-06T08:44:41;1.43;;;0.87;;
27161;SDS011;54464;50.558;9.704;2023-08-06T08:47:08;1.37;;;0.90;;
27161;SDS011;54464;50.558;9.704;2023-08-06T08:49:35;1.70;;;0.70;;
27161;SDS011;54464;50.558;9.704;2023-08-06T08:52:02;1.30;;;1.20;;
27161;SDS011;54464;50.558;9.704;2023-08-06T08:54:31;1.03;;;0.90;;
27161;SDS011;54464;50.558;9.704;2023-08-06T08:56:58;1.17;;;1.00;;
27161;SDS011;54464;50.558;9.704;2023-08-06T08:59:24;0.90;;;0.87;;
27161;SDS011;54464;50.558;9.704;2023-08-06T09:01:49;0.80;;;0.80;;
27161;SDS011;54464;50.558;9.704;2023-08-06T09:04:16;1.07;;;0.97;;
27161;SDS011;54464;50.558;9.704;2023-08-06T09:06:42;1.20;;;0.80;;
27161;SDS011;54464;50.558;9.704;2023-08-06T09:09:34;0.60;;;0.60;;
27161;SDS011;54464;50.558;9.704;2023-08-06T09:12:05;0.80;;;0.73;;
27161;SDS011;54464;50.558;9.704;2023-08-06T09:14:36;0.73;;;0.70;;
27161;SDS011;54464;50.558;9.704;2023-08-06T09:17:03;0.80;;;0.80;;
27161;SDS011;54464;50.558;9.704;2023-08-06T09:19:29;1.10;;;0.87;;
27161;SDS011;54464;50.558;9.704;2023-08-06T09:21:55;0.90;;;0.80;;
27161;SDS011;54464;50.558;9.704;2023-08-06T09:24:21;1.57;;;0.97;;
27161;SDS011;54464;50.558;9.704;2023-08-06T09:26:47;0.87;;;0.87;;
27161;SDS011;54464;50.558;9.704;2023-08-06T09:29:12;1.50;;;1.10;;
27161;SDS011;54464;50.558;9.704;2023-08-06T09:31:42;0.73;;;0.73;;
27161;SDS011;54464;50.558;9.704;2023-08-06T09:34:16;0.60;;;0.60;;
27161;SDS011;54464;50.558;9.704;2023-08-06T09:36:43;0.50;;;0.50;;
27161;SDS011;54464;50.558;9.704;2023-08-06T09:39:13;0.73;;;0.57;;
27161;SDS011;54464;50.558;9.704;2023-08-06T09:41:40;0.53;;;0.50;;
27161;SDS011;54464;50.558;9.704;2023-08-06T09:44:11;1.13;;;0.70;;
27161;SDS011;54464;50.558;9.704;2023-08-06T09:46:41;0.60;;;0.60;;
27161;SDS011;54464;50.558;9.704;2023-08-06T09:49:07;0.90;;;0.80;;
27161;SDS011;54464;50.558;9.704;2023-08-06T09:51:34;1.00;;;0.77;;
27161;SDS011;54464;50.558;9.704;2023-08-06T09:54:02;0.90;;;0.90;;
27161;SDS011;54464;50.558;9.704;2023-08-06T09:56:29;0.90;;;0.90;;
27161;SDS011;54464;50.558;9.704;2023-08-06T09:58:58;2.30;;;0.80;;
27161;SDS011;54464;50.558;9.704;2023-08-06T10:01:24;1.53;;;1.10;;
27161;SDS011;54464;50.558;9.704;2023-08-06T10:03:50;1.37;;;1.27;;
27161;SDS011;54464;50.558;9.704;2023-08-06T10:06:18;1.30;;;1.20;;
27161;SDS011;54464;50.558;9.704;2023-08-06T10:08:45;1.63;;;1.30;;
27161;SDS011;54464;50.558;9.704;2023-08-06T10:11:10;2.27;;;1.10;;
27161;SDS011;54464;50.558;9.704;2023-08-06T10:13:38;1.33;;;0.90;;
27161;SDS011;54464;50.558;9.704;2023-08-06T10:16:04;0.93;;;0.90;;
27161;SDS011;54464;50.558;9.704;2023-08-06T10:18:31;1.13;;;1.00;;
27161;SDS011;54464;50.558;9.704;2023-08-06T10:20:57;1.27;;;1.17;;
27161;SDS011;54464;50.558;9.704;2023-08-06T10:23:34;1.10;;;1.00;;
27161;SDS011;54464;50.558;9.704;2023-08-06T10:26:00;0.93;;;0.77;;
27161;SDS011;54464;50.558;9.704;2023-08-06T10:28:39;0.70;;;0.70;;
27161;SDS011;54464;50.558;9.704;2023-08-06T10:31:05;0.60;;;0.60;;
27161;SDS011;54464;50.558;9.704;2023-08-06T10:33:44;0.60;;;0.60;;
27161;SDS011;54464;50.558;9.704;2023-08-06T10:36:10;0.73;;;0.50;;
27161;SDS011;54464;50.558;9.704;2023-08-06T10:38:57;0.53;;;0.43;;
27161;SDS011;54464;50.558;9.704;2023-08-06T10:41:23;0.70;;;0.70;;
27161;SDS011;54464;50.558;9.704;2023-08-06T10:44:04;0.40;;;0.40;;
27161;SDS011;54464;50.558;9.704;2023-08-06T10:46:34;0.50;;;0.50;;
27161;SDS011;54464;50.558;9.704;2023-08-06T10:49:01;1.37;;;0.30;;
27161;SDS011;54464;50.558;9.704;2023-08-06T10:51:27;0.40;;;0.37;;
27161;SDS011;54464;50.558;9.704;2023-08-06T10:53:52;0.70;;;0.40;;
27161;SDS011;54464;50.558;9.704;2023-08-06T10:56:24;1.23;;;0.40;;
27161;SDS011;54464;50.558;9.704;2023-08-06T10:58:52;0.60;;;0.50;;
27161;SDS011;54464;50.558;9.704;2023-08-06T11:01:19;0.60;;;0.40;;
27161;SDS011;54464;50.558;9.704;2023-08-06T11:03:46;0.30;;;0.30;;
27161;SDS011;54464;50.558;9.704;2023-08-06T11:06:19;1.43;;;0.50;;
27161;SDS011;54464;50.558;9.704;2023-08-06T11:08:52;0.50;;;0.50;;
27161;SDS011;54464;50.558;9.704;2023-08-06T11:11:19;0.57;;;0.57;;
27161;SDS011;54464;50.558;9.704;2023-08-06T11:13:46;0.70;;;0.70;;
27161;SDS011;54464;50.558;9.704;2023-08-06T11:16:16;0.60;;;0.60;;
27161;SDS011;54464;50.558;9.704;2023-08-06T11:18:43;0.60;;;0.60;;
27161;SDS011;54464;50.558;9.704;2023-08-06T11:21:09;0.70;;;0.70;;
27161;SDS011;54464;50.558;9.704;2023-08-06T11:23:36;0.70;;;0.67;;
27161;SDS011;54464;50.558;9.704;2023-08-06T11:26:02;0.70;;;0.60;;
27161;SDS011;54464;50.558;9.704;2023-08-06T11:28:28;0.50;;;0.50;;
27161;SDS011;54464;50.558;9.704;2023-08-06T11:30:54;0.73;;;0.40;;
27161;SDS011;54464;50.558;9.704;2023-08-06T11:33:24;0.60;;;0.60;;
27161;SDS011;54464;50.558;9.704;2023-08-06T11:35:51;0.77;;;0.77;;
27161;SDS011;54464;50.558;9.704;2023-08-06T11:38:17;0.70;;;0.60;;
27161;SDS011;54464;50.558;9.704;2023-08-06T11:40:46;0.90;;;0.60;;
27161;SDS011;54464;50.558;9.704;2023-08-06T11:43:13;0.60;;;0.60;;
27161;SDS011;54464;50.558;9.704;2023-08-06T11:45:39;0.50;;;0.50;;
27161;SDS011;54464;50.558;9.704;2023-08-06T11:48:05;1.13;;;0.70;;
27161;SDS011;54464;50.558;9.704;2023-08-06T11:50:31;0.80;;;0.70;;
27161;SDS011;54464;50.558;9.704;2023-08-06T11:52:59;0.67;;;0.50;;
27161;SDS011;54464;50.558;9.704;2023-08-06T11:55:25;0.60;;;0.60;;
27161;SDS011;54464;50.558;9.704;2023-08-06T11:57:53;0.87;;;0.67;;
27161;SDS011;54464;50.558;9.704;2023-08-06T12:00:20;0.70;;;0.60;;
27161;SDS011;54464;50.558;9.704;2023-08-06T12:02:48;1.00;;;0.57;;
27161;SDS011;54464;50.558;9.704;2023-08-06T12:05:16;0.90;;;0.70;;
27161;SDS011;54464;50.558;9.704;2023-08-06T12:07:46;1.20;;;0.67;;
27161;SDS011;54464;50.558;9.704;2023-08-06T12:10:13;2.07;;;0.80;;
27161;SDS011;54464;50.558;9.704;2023-08-06T12:12:39;1.00;;;0.70;;
27161;SDS011;54464;50.558;9.704;2023-08-06T12:15:06;1.40;;;1.23;;
27161;SDS011;54464;50.558;9.704;2023-08-06T12:17:32;1.80;;;1.43;;
27161;SDS011;54464;50.558;9.704;2023-08-06T12:19:58;4.20;;;2.00;;
27161;SDS011;54464;50.558;9.704;2023-08-06T12:22:24;2.73;;;2.07;;
27161;SDS011;54464;50.558;9.704;2023-08-06T12:24:50;2.60;;;2.40;;
27161;SDS011;54464;50.558;9.704;2023-08-06T12:27:15;4.97;;;3.10;;
27161;SDS011;54464;50.558;9.704;2023-08-06T12:29:42;4.20;;;3.10;;
27161;SDS011;54464;50.558;9.704;2023-08-06T12:32:09;3.33;;;3.03;;
27161;SDS011;54464;50.558;9.704;2023-08-06T12:34:35;3.83;;;3.40;;
27161;SDS011;54464;50.558;9.704;2023-08-06T12:37:01;2.67;;;2.47;;
27161;SDS011;54464;50.558;9.704;2023-08-06T12:39:27;3.50;;;2.20;;
27161;SDS011;54464;50.558;9.704;2023-08-06T12:41:54;2.60;;;2.40;;
27161;SDS011;54464;50.558;9.704;2023-08-06T12:44:20;2.37;;;2.17;;
27161;SDS011;54464;50.558;9.704;2023-08-06T12:46:46;2.50;;;1.80;;
27161;SDS011;54464;50.558;9.704;2023-08-06T12:49:11;2.00;;;1.90;;
27161;SDS011;54464;50.558;9.704;2023-08-06T12:51:37;1.60;;;1.50;;
27161;SDS011;54464;50.558;9.704;2023-08-06T12:54:03;2.00;;;1.90;;
27161;SDS011;54464;50.558;9.704;2023-08-06T12:56:29;1.83;;;1.70;;
27161;SDS011;54464;50.558;9.704;2023-08-06T12:58:54;1.73;;;1.50;;
27161;SDS011;54464;50.558;9.704;2023-08-06T13:01:20;2.50;;;1.50;;
27161;SDS011;54464;50.558;9.704;2023-08-06T13:03:45;1.40;;;1.30;;
27161;SDS011;54464;50.558;9.704;2023-08-06T13:06:11;1.20;;;1.10;;
27161;SDS011;54464;50.558;9.704;2023-08-06T13:08:43;1.10;;;1.00;;
27161;SDS011;54464;50.558;9.704;2023-08-06T13:11:09;0.97;;;0.90;;
27161;SDS011;54464;50.558;9.704;2023-08-06T13:13:35;0.73;;;0.70;;
27161;SDS011;54464;50.558;9.704;2023-08-06T13:16:00;1.27;;;0.80;;
27161;SDS011;54464;50.558;9.704;2023-08-06T13:18:26;0.63;;;0.63;;
27161;SDS011;54464;50.558;9.704;2023-08-06T13:20:53;1.10;;;0.60;;
27161;SDS011;54464;50.558;9.704;2023-08-06T13:23:19;1.37;;;0.97;;
27161;SDS011;54464;50.558;9.704;2023-08-06T13:25:45;0.70;;;0.60;;
27161;SDS011;54464;50.558;9.704;2023-08-06T13:28:11;0.60;;;0.60;;
27161;SDS011;54464;50.558;9.704;2023-08-06T13:30:38;0.60;;;0.60;;
27161;SDS011;54464;50.558;9.704;2023-08-06T13:33:07;1.90;;;0.50;;
27161;SDS011;54464;50.558;9.704;2023-08-06T13:35:33;0.93;;;0.50;;
27161;SDS011;54464;50.558;9.704;2023-08-06T13:37:59;1.30;;;0.60;;
27161;SDS011;54464;50.558;9.704;2023-08-06T13:40:24;0.90;;;0.60;;
27161;SDS011;54464;50.558;9.704;2023-08-06T13:42:50;0.50;;;0.50;;
27161;SDS011;54464;50.558;9.704;2023-08-06T13:45:22;0.50;;;0.50;;
27161;SDS011;54464;50.558;9.704;2023-08-06T13:47:59;0.73;;;0.50;;
27161;SDS011;54464;50.558;9.704;2023-08-06T13:50:41;1.03;;;0.60;;
27161;SDS011;54464;50.558;9.704;2023-08-06T13:53:07;0.47;;;0.40;;
27161;SDS011;54464;50.558;9.704;2023-08-06T13:55:32;0.30;;;0.30;;
27161;SDS011;54464;50.558;9.704;2023-08-06T13:57:58;0.40;;;0.40;;
27161;SDS011;54464;50.558;9.704;2023-08-06T14:00:26;0.93;;;0.30;;
27161;SDS011;54464;50.558;9.704;2023-08-06T14:02:52;0.30;;;0.30;;
27161;SDS011;54464;50.558;9.704;2023-08-06T14:05:17;0.40;;;0.40;;
27161;SDS011;54464;50.558;9.704;2023-08-06T14:07:43;0.43;;;0.30;;
27161;SDS011;54464;50.558;9.704;2023-08-06T14:10:08;0.73;;;0.30;;
27161;SDS011;54464;50.558;9.704;2023-08-06T14:12:34;0.40;;;0.40;;
27161;SDS011;54464;50.558;9.704;2023-08-06T14:15:00;0.30;;;0.30;;
27161;SDS011;54464;50.558;9.704;2023-08-06T14:17:27;0.57;;;0.40;;
27161;SDS011;54464;50.558;9.704;2023-08-06T14:19:53;0.50;;;0.40;;
27161;SDS011;54464;50.558;9.704;2023-08-06T14:22:19;0.30;;;0.30;;
27161;SDS011;54464;50.558;9.704;2023-08-06T14:24:44;0.30;;;0.30;;
27161;SDS011;54464;50.558;9.704;2023-08-06T14:27:12;0.30;;;0.30;;
27161;SDS011;54464;50.558;9.704;2023-08-06T14:29:37;0.30;;;0.30;;
27161;SDS011;54464;50.558;9.704;2023-08-06T14:32:12;0.30;;;0.30;;
27161;SDS011;54464;50.558;9.704;2023-08-06T14:34:37;0.63;;;0.30;;
27161;SDS011;54464;50.558;9.704;2023-08-06T14:37:03;0.40;;;0.40;;
27161;SDS011;54464;50.558;9.704;2023-08-06T14:39:35;0.30;;;0.30;;
27161;SDS011;54464;50.558;9.704;2023-08-06T14:42:01;0.27;;;0.27;;
27161;SDS011;54464;50.558;9.704;2023-08-06T14:44:27;0.30;;;0.30;;
27161;SDS011;54464;50.558;9.704;2023-08-06T14:46:52;0.70;;;0.40;;
27161;SDS011;54464;50.558;9.704;2023-08-06T14:49:18;0.20;;;0.20;;
27161;SDS011;54464;50.558;9.704;2023-08-06T14:51:46;0.40;;;0.40;;